createdAt,value
2022-11-17T00:01:19.406Z,96678.47
2022-11-17T00:03:49.062Z,96688.38
2022-11-17T00:06:15.769Z,96678.34
2022-11-17T00:08:42.276Z,96690.44
2022-11-17T00:11:08.808Z,96688.06
2022-11-17T00:13:53.875Z,96683.19
2022-11-17T00:16:20.625Z,96679.56
2022-11-17T00:19:05.814Z,96678.00
2022-11-17T00:21:32.329Z,96673.59
2022-11-17T00:23:58.884Z,96675.50
2022-11-17T00:26:32.406Z,96661.97
2022-11-17T00:29:00.335Z,96667.97
2022-11-17T00:31:46.901Z,96661.53
2022-11-17T00:34:15.434Z,96656.78
2022-11-17T00:36:46.915Z,96652.88
2022-11-17T00:39:15.648Z,96647.84
2022-11-17T00:41:42.213Z,96638.59
2022-11-17T00:44:08.772Z,96642.66
2022-11-17T00:46:35.563Z,96645.63
2022-11-17T00:49:02.043Z,96644.81
2022-11-17T00:51:28.518Z,96635.25
2022-11-17T00:53:55.054Z,96621.41
2022-11-17T00:56:21.550Z,96630.06
2022-11-17T00:58:48.028Z,96619.38
2022-11-17T01:01:14.691Z,96614.06
2022-11-17T01:03:41.224Z,96606.34
2022-11-17T01:06:09.511Z,96607.44
2022-11-17T01:08:36.165Z,96609.34
2022-11-17T01:11:13.771Z,96605.09
2022-11-17T01:13:40.607Z,96599.59
2022-11-17T01:16:14.805Z,96598.81
2022-11-17T01:18:41.895Z,96594.25
2022-11-17T01:21:22.681Z,96586.41
2022-11-17T01:23:50.208Z,96583.41
2022-11-17T01:26:21.760Z,96580.56
2022-11-17T01:28:48.417Z,96577.44
2022-11-17T01:31:16.644Z,96562.84
2022-11-17T01:33:43.180Z,96571.16
2022-11-17T01:36:17.394Z,96559.84
2022-11-17T01:38:44.241Z,96548.41
2022-11-17T01:41:18.458Z,96541.50
2022-11-17T01:43:45.921Z,96533.34
2022-11-17T01:46:33.791Z,96529.72
2022-11-17T01:49:13.037Z,96524.53
2022-11-17T01:51:42.058Z,96513.84
2022-11-17T01:54:08.674Z,96503.97
2022-11-17T01:56:38.873Z,96493.91
2022-11-17T01:59:28.880Z,96492.06
2022-11-17T02:01:55.906Z,96482.78
2022-11-17T02:04:49.944Z,96487.03
2022-11-17T02:07:27.015Z,96477.94
2022-11-17T02:09:54.002Z,96482.47
2022-11-17T02:12:20.760Z,96478.53
2022-11-17T02:14:48.718Z,96481.81
2022-11-17T02:17:15.223Z,96476.50
2022-11-17T02:19:42.933Z,96469.41
2022-11-17T02:22:31.639Z,96473.94
2022-11-17T02:25:20.654Z,96466.28
2022-11-17T02:28:11.003Z,96466.41
2022-11-17T02:30:48.147Z,96456.53
2022-11-17T02:33:24.979Z,96451.03
2022-11-17T02:35:54.273Z,96444.94
2022-11-17T02:38:27.329Z,96435.19
2022-11-17T02:41:13.365Z,96434.41
2022-11-17T02:44:05.887Z,96435.34
2022-11-17T02:46:43.224Z,96428.91
2022-11-17T02:49:15.943Z,96420.47
2022-11-17T02:51:42.830Z,96423.41
2022-11-17T02:54:09.368Z,96424.06
2022-11-17T02:56:41.140Z,96409.97
2022-11-17T02:59:07.606Z,96414.00
2022-11-17T03:01:47.651Z,96407.44
2022-11-17T03:04:23.171Z,96397.06
2022-11-17T03:07:01.030Z,96393.63
2022-11-17T03:09:54.223Z,96400.22
2022-11-17T03:12:29.585Z,96386.13
2022-11-17T03:15:04.266Z,96385.81
2022-11-17T03:17:34.978Z,96386.59
2022-11-17T03:20:12.449Z,96382.34
2022-11-17T03:22:51.192Z,96377.03
2022-11-17T03:25:19.072Z,96372.03
2022-11-17T03:27:47.473Z,96370.75
2022-11-17T03:30:13.982Z,96374.50
2022-11-17T03:32:41.476Z,96370.13
2022-11-17T03:35:14.357Z,96360.69
2022-11-17T03:37:43.807Z,96366.50
2022-11-17T03:40:11.881Z,96366.03
2022-11-17T03:42:40.666Z,96366.81
2022-11-17T03:45:15.709Z,96368.69
2022-11-17T03:47:42.242Z,96363.38
2022-11-17T03:50:17.240Z,96364.47
2022-11-17T03:52:43.848Z,96354.59
2022-11-17T03:55:12.417Z,96345.03
2022-11-17T03:57:38.802Z,96351.16
2022-11-17T04:00:06.716Z,96353.34
2022-11-17T04:02:33.219Z,96341.91
2022-11-17T04:05:05.471Z,96334.22
2022-11-17T04:07:40.460Z,96331.09
2022-11-17T04:10:11.317Z,96338.75
2022-11-17T04:12:56.425Z,96334.84
2022-11-17T04:15:41.489Z,96340.66
2022-11-17T04:18:08.039Z,96337.69
2022-11-17T04:20:37.149Z,96338.28
2022-11-17T04:23:07.716Z,96333.56
2022-11-17T04:25:56.234Z,96328.56
2022-11-17T04:28:38.629Z,96323.56
2022-11-17T04:31:26.342Z,96323.84
2022-11-17T04:33:56.972Z,96319.31
2022-11-17T04:36:27.823Z,96316.19
2022-11-17T04:38:55.266Z,96314.13
2022-11-17T04:41:41.017Z,96316.34
2022-11-17T04:44:08.364Z,96315.56
2022-11-17T04:46:35.353Z,96310.50
2022-11-17T04:49:01.921Z,96309.28
2022-11-17T04:51:28.630Z,96307.72
2022-11-17T04:53:55.170Z,96303.16
2022-11-17T04:56:22.084Z,96303.16
2022-11-17T04:58:48.630Z,96298.09
2022-11-17T05:01:17.380Z,96300.75
2022-11-17T05:03:50.467Z,96295.75
2022-11-17T05:06:22.947Z,96290.44
2022-11-17T05:08:49.673Z,96291.53
2022-11-17T05:11:35.285Z,96284.66
2022-11-17T05:14:02.141Z,96279.63
2022-11-17T05:16:47.354Z,96279.16
2022-11-17T05:19:16.003Z,96282.91
2022-11-17T05:21:42.475Z,96277.88
2022-11-17T05:24:09.166Z,96268.66
2022-11-17T05:26:36.492Z,96272.41
2022-11-17T05:29:04.222Z,96274.28
2022-11-17T05:31:30.734Z,96257.38
2022-11-17T05:33:57.258Z,96263.78
2022-11-17T05:36:24.188Z,96269.09
2022-11-17T05:38:50.936Z,96257.22
2022-11-17T05:41:17.540Z,96263.31
2022-11-17T05:43:44.499Z,96250.00
2022-11-17T05:46:11.029Z,96251.88
2022-11-17T05:48:37.536Z,96259.09
2022-11-17T05:51:04.160Z,96268.97
2022-11-17T05:53:30.828Z,96266.28
2022-11-17T05:56:08.519Z,96262.53
2022-11-17T05:58:35.030Z,96258.59
2022-11-17T06:01:01.504Z,96259.38
2022-11-17T06:03:34.179Z,96250.94
2022-11-17T06:06:00.912Z,96249.38
2022-11-17T06:08:29.069Z,96253.59
2022-11-17T06:10:55.896Z,96256.88
2022-11-17T06:13:28.900Z,96247.31
2022-11-17T06:15:55.493Z,96241.22
2022-11-17T06:18:24.579Z,96239.94
2022-11-17T06:20:52.138Z,96238.72
2022-11-17T06:23:18.606Z,96232.09
2022-11-17T06:25:45.074Z,96234.78
2022-11-17T06:28:13.749Z,96233.53
2022-11-17T06:30:40.275Z,96230.09
2022-11-17T06:33:11.043Z,96225.88
2022-11-17T06:35:37.701Z,96226.16
2022-11-17T06:38:04.221Z,96219.75
2022-11-17T06:40:30.706Z,96218.66
2022-11-17T06:43:12.438Z,96220.53
2022-11-17T06:45:40.579Z,96219.44
2022-11-17T06:48:07.430Z,96216.28
2022-11-17T06:50:34.351Z,96219.28
2022-11-17T06:53:04.513Z,96213.16
2022-11-17T06:55:31.007Z,96215.50
2022-11-17T06:58:06.472Z,96216.63
2022-11-17T07:00:33.346Z,96213.94
2022-11-17T07:03:04.110Z,96219.28
2022-11-17T07:05:34.208Z,96215.50
2022-11-17T07:08:01.747Z,96216.16
2022-11-17T07:10:28.605Z,96219.59
2022-11-17T07:12:55.119Z,96220.22
2022-11-17T07:15:21.592Z,96212.56
2022-11-17T07:17:48.315Z,96200.19
2022-11-17T07:20:14.870Z,96200.34
2022-11-17T07:22:41.526Z,96195.38
2022-11-17T07:25:08.238Z,96200.06
2022-11-17T07:27:34.688Z,96199.44
2022-11-17T07:30:01.542Z,96197.56
2022-11-17T07:32:27.993Z,96199.13
2022-11-17T07:34:54.780Z,96193.97
2022-11-17T07:37:21.303Z,96194.13
2022-11-17T07:39:47.754Z,96177.09
2022-11-17T07:42:14.211Z,96186.63
2022-11-17T07:44:40.705Z,96182.53
2022-11-17T07:47:07.211Z,96176.13
2022-11-17T07:49:33.687Z,96184.25
2022-11-17T07:52:01.070Z,96190.41
2022-11-17T07:54:28.249Z,96189.28
2022-11-17T07:56:54.890Z,96190.06
2022-11-17T07:59:21.753Z,96188.66
2022-11-17T08:01:48.291Z,96184.41
2022-11-17T08:04:14.798Z,96187.09
2022-11-17T08:06:41.255Z,96187.72
2022-11-17T08:09:10.628Z,96194.91
2022-11-17T08:11:37.118Z,96201.06
2022-11-17T08:14:03.590Z,96186.91
2022-11-17T08:16:30.782Z,96189.88
2022-11-17T08:18:57.671Z,96201.94
2022-11-17T08:21:24.202Z,96197.75
2022-11-17T08:23:53.171Z,96191.94
2022-11-17T08:26:24.905Z,96188.50
2022-11-17T08:28:57.940Z,96197.91
2022-11-17T08:31:25.263Z,96185.50
2022-11-17T08:33:51.736Z,96185.34
2022-11-17T08:36:18.195Z,96189.25
2022-11-17T08:38:44.695Z,96192.69
2022-11-17T08:41:11.230Z,96183.63
2022-11-17T08:43:37.692Z,96185.66
2022-11-17T08:46:04.247Z,96171.72
2022-11-17T08:48:31.564Z,96181.91
2022-11-17T08:50:58.055Z,96168.25
2022-11-17T08:53:24.650Z,96178.59
2022-11-17T08:55:51.985Z,96176.72
2022-11-17T08:58:18.586Z,96179.56
2022-11-17T09:00:48.009Z,96178.28
2022-11-17T09:03:14.589Z,96184.41
2022-11-17T09:05:42.473Z,96183.28
2022-11-17T09:08:38.374Z,96184.06
2022-11-17T09:10:55.856Z,96176.72
2022-11-17T09:13:22.316Z,96183.13
2022-11-17T09:15:48.838Z,96185.34
2022-11-17T09:18:15.665Z,96188.00
2022-11-17T09:20:45.936Z,96182.06
2022-11-17T09:23:14.854Z,96183.00
2022-11-17T09:25:41.408Z,96183.28
2022-11-17T09:28:07.931Z,96177.50
2022-11-17T09:30:34.410Z,96173.88
2022-11-17T09:33:00.885Z,96180.78
2022-11-17T09:35:27.414Z,96180.00
2022-11-17T09:37:58.809Z,96177.78
2022-11-17T09:40:25.267Z,96187.66
2022-11-17T09:42:51.720Z,96180.28
2022-11-17T09:45:20.856Z,96187.81
2022-11-17T09:47:51.495Z,96178.25
2022-11-17T09:50:22.110Z,96185.00
2022-11-17T09:53:17.588Z,96198.47
2022-11-17T09:55:49.259Z,96196.09
2022-11-17T09:58:38.470Z,96192.66
2022-11-17T10:01:05.294Z,96184.50
2022-11-17T10:03:33.024Z,96186.69
2022-11-17T10:06:00.838Z,96195.00
2022-11-17T10:08:38.345Z,96190.44
2022-11-17T10:11:30.161Z,96189.34
2022-11-17T10:13:56.633Z,96191.22
2022-11-17T10:16:23.208Z,96188.09
2022-11-17T10:18:49.666Z,96190.75
2022-11-17T10:21:16.124Z,96202.47
2022-11-17T10:23:46.886Z,96192.94
2022-11-17T10:26:14.842Z,96189.81
2022-11-17T10:28:41.315Z,96187.16
2022-11-17T10:31:11.631Z,96186.06
2022-11-17T10:33:48.916Z,96182.75
2022-11-17T10:36:26.604Z,96173.50
2022-11-17T10:38:54.153Z,96180.09
2022-11-17T10:41:41.795Z,96177.91
2022-11-17T10:44:27.961Z,96176.81
2022-11-17T10:47:02.414Z,96178.22
2022-11-17T10:49:36.352Z,96185.25
2022-11-17T10:52:06.699Z,96175.94
2022-11-17T10:54:33.195Z,96180.78
2022-11-17T10:56:59.947Z,96170.94
2022-11-17T10:59:32.021Z,96174.09
2022-11-17T11:01:58.667Z,96172.50
2022-11-17T11:04:41.368Z,96175.13
2022-11-17T11:07:10.738Z,96177.50
2022-11-17T11:09:40.034Z,96174.34
2022-11-17T11:12:10.223Z,96180.31
2022-11-17T11:14:41.673Z,96185.28
2022-11-17T11:17:12.966Z,96178.09
2022-11-17T11:19:41.318Z,96173.75
2022-11-17T11:22:25.983Z,96173.91
2022-11-17T11:25:01.693Z,96173.59
2022-11-17T11:27:43.207Z,96172.81
2022-11-17T11:30:11.183Z,96172.03
2022-11-17T11:33:23.769Z,96186.91
2022-11-17T11:35:54.936Z,96186.13
2022-11-17T11:38:41.194Z,96203.94
2022-11-17T11:41:21.462Z,96197.84
2022-11-17T11:44:19.272Z,96191.25
2022-11-17T11:46:53.901Z,96186.25
2022-11-17T11:49:34.962Z,96192.97
2022-11-17T11:52:02.346Z,96200.47
2022-11-17T11:54:53.036Z,96203.91
2022-11-17T11:57:30.675Z,96187.78
2022-11-17T12:00:04.064Z,96192.97
2022-11-17T12:02:42.112Z,96199.06
2022-11-17T12:05:16.448Z,96195.97
2022-11-17T12:08:05.997Z,96195.66
2022-11-17T12:10:45.490Z,96193.44
2022-11-17T12:13:18.541Z,96202.81
2022-11-17T12:15:45.060Z,96199.69
2022-11-17T12:18:12.792Z,96198.91
2022-11-17T12:20:39.164Z,96202.16
2022-11-17T12:23:24.158Z,96202.94
2022-11-17T12:25:54.133Z,96206.53
2022-11-17T12:28:36.723Z,96210.78
2022-11-17T12:31:09.688Z,96204.09
2022-11-17T12:33:51.612Z,96209.59
2022-11-17T12:36:28.691Z,96209.25
2022-11-17T12:38:57.780Z,96208.47
2022-11-17T12:41:49.282Z,96208.00
2022-11-17T12:44:37.560Z,96209.88
2022-11-17T12:47:18.862Z,96211.75
2022-11-17T12:50:06.738Z,96211.75
2022-11-17T12:52:51.884Z,96211.75
2022-11-17T12:55:55.940Z,96213.63
2022-11-17T12:58:32.271Z,96212.06
2022-11-17T13:01:09.252Z,96212.84
2022-11-17T13:03:54.355Z,96212.84
2022-11-17T13:06:35.085Z,96227.69
2022-11-17T13:09:07.271Z,96222.69
2022-11-17T13:11:33.949Z,96215.00
2022-11-17T13:14:11.261Z,96222.69
2022-11-17T13:16:44.156Z,96228.78
2022-11-17T13:19:25.872Z,96222.38
2022-11-17T13:22:18.774Z,96231.63
2022-11-17T13:24:46.677Z,96228.47
2022-11-17T13:27:31.496Z,96235.50
2022-11-17T13:30:23.128Z,96229.91
2022-11-17T13:32:49.802Z,96234.44
2022-11-17T13:35:26.492Z,96238.16
2022-11-17T13:38:06.426Z,96228.47
2022-11-17T13:40:33.977Z,96236.00
2022-11-17T13:43:01.023Z,96236.59
2022-11-17T13:45:27.534Z,96240.16
2022-11-17T13:47:54.787Z,96234.25
2022-11-17T13:50:21.156Z,96234.56
2022-11-17T13:52:47.806Z,96238.81
2022-11-17T13:55:17.799Z,96235.34
2022-11-17T13:58:03.049Z,96237.72
2022-11-17T14:00:29.583Z,96243.50
2022-11-17T14:03:00.866Z,96244.63
2022-11-17T14:05:28.395Z,96258.38
2022-11-17T14:07:57.036Z,96259.28
2022-11-17T14:10:28.251Z,96266.03
2022-11-17T14:13:00.746Z,96263.34
2022-11-17T14:15:31.531Z,96265.69
2022-11-17T14:17:59.273Z,96268.06
2022-11-17T14:20:25.920Z,96265.09
2022-11-17T14:23:11.311Z,96272.47
2022-11-17T14:25:44.694Z,96266.78
2022-11-17T14:28:21.021Z,96276.53
2022-11-17T14:30:48.366Z,96279.00
2022-11-17T14:33:14.927Z,96281.19
2022-11-17T14:35:41.877Z,96283.53
2022-11-17T14:38:15.691Z,96289.44
2022-11-17T14:40:42.180Z,96292.75
2022-11-17T14:43:08.664Z,96288.50
2022-11-17T14:45:37.885Z,96285.03
2022-11-17T14:48:07.656Z,96282.69
2022-11-17T14:50:34.213Z,96285.69
2022-11-17T14:53:00.674Z,96284.56
2022-11-17T14:55:27.397Z,96296.31
2022-11-17T14:57:53.958Z,96287.56
2022-11-17T15:00:21.750Z,96298.47
2022-11-17T15:02:48.408Z,96292.38
2022-11-17T15:05:15.220Z,96296.13
2022-11-17T15:07:42.465Z,96295.34
2022-11-17T15:10:09.161Z,96300.97
2022-11-17T15:12:35.780Z,96296.72
2022-11-17T15:15:02.232Z,96295.47
2022-11-17T15:17:29.020Z,96288.09
2022-11-17T15:19:55.615Z,96298.72
2022-11-17T15:22:22.091Z,96293.41
2022-11-17T15:24:48.560Z,96307.47
2022-11-17T15:27:15.131Z,96306.22
2022-11-17T15:29:41.846Z,96307.78
2022-11-17T15:32:08.368Z,96313.41
2022-11-17T15:34:37.879Z,96311.03
2022-11-17T15:37:05.425Z,96317.16
2022-11-17T15:39:32.028Z,96312.63
2022-11-17T15:41:58.512Z,96309.16
2022-11-17T15:44:25.054Z,96316.38
2022-11-17T15:46:51.535Z,96317.47
2022-11-17T15:49:18.513Z,96303.19
2022-11-17T15:51:45.266Z,96317.16
2022-11-17T15:54:16.398Z,96315.59
2022-11-17T15:56:46.319Z,96311.34
2022-11-17T15:59:12.965Z,96320.63
2022-11-17T16:01:39.595Z,96321.69
2022-11-17T16:04:10.400Z,96320.91
2022-11-17T16:06:41.155Z,96323.56
2022-11-17T16:09:07.719Z,96327.63
2022-11-17T16:11:34.374Z,96329.97
2022-11-17T16:14:01.008Z,96325.75
2022-11-17T16:16:28.942Z,96319.16
2022-11-17T16:18:55.485Z,96323.69
2022-11-17T16:21:21.983Z,96331.19
2022-11-17T16:23:49.872Z,96334.63
2022-11-17T16:26:17.678Z,96336.19
2022-11-17T16:28:44.209Z,96336.00
2022-11-17T16:31:14.633Z,96342.59
2022-11-17T16:33:41.337Z,96342.59
2022-11-17T16:36:08.432Z,96344.75
2022-11-17T16:38:35.242Z,96339.75
2022-11-17T16:41:01.782Z,96343.72
2022-11-17T16:43:28.253Z,96341.50
2022-11-17T16:45:54.734Z,96343.06
2022-11-17T16:48:21.203Z,96344.47
2022-11-17T16:50:47.732Z,96344.88
2022-11-17T16:53:14.293Z,96354.63
2022-11-17T16:55:40.761Z,96349.53
2022-11-17T16:58:07.311Z,96348.59
2022-11-17T17:00:34.793Z,96351.13
2022-11-17T17:03:01.821Z,96349.59
2022-11-17T17:05:29.436Z,96348.66
2022-11-17T17:07:56.209Z,96350.69
2022-11-17T17:10:23.423Z,96347.88
2022-11-17T17:12:49.907Z,96353.66
2022-11-17T17:15:16.438Z,96353.66
2022-11-17T17:17:42.921Z,96357.44
2022-11-17T17:20:09.956Z,96366.22
2022-11-17T17:22:36.431Z,96362.13
2022-11-17T17:25:06.875Z,96360.88
2022-11-17T17:27:33.449Z,96370.34
2022-11-17T17:29:59.905Z,96379.13
2022-11-17T17:32:26.377Z,96372.34
2022-11-17T17:34:52.833Z,96375.00
2022-11-17T17:37:19.297Z,96379.13
2022-11-17T17:39:45.765Z,96376.59
2022-11-17T17:42:12.612Z,96374.41
2022-11-17T17:44:39.202Z,96370.47
2022-11-17T17:47:05.782Z,96377.22
2022-11-17T17:49:32.265Z,96370.78
2022-11-17T17:51:58.732Z,96376.28
2022-11-17T17:54:25.989Z,96377.06
2022-11-17T17:56:52.867Z,96370.31
2022-11-17T17:59:19.824Z,96377.22
2022-11-17T18:01:48.095Z,96372.19
2022-11-17T18:04:16.576Z,96375.63
2022-11-17T18:06:45.916Z,96372.34
2022-11-17T18:09:14.471Z,96383.16
2022-11-17T18:11:51.152Z,96387.25
2022-11-17T18:14:20.991Z,96385.69
2022-11-17T18:16:47.922Z,96390.69
2022-11-17T18:19:14.708Z,96398.38
2022-11-17T18:21:41.437Z,96391.47
2022-11-17T18:24:08.284Z,96398.06
2022-11-17T18:26:35.420Z,96386.47
2022-11-17T18:29:06.868Z,96399.31
2022-11-17T18:31:34.664Z,96402.78
2022-11-17T18:34:03.251Z,96406.22
2022-11-17T18:36:30.469Z,96401.69
2022-11-17T18:38:58.563Z,96403.41
2022-11-17T18:41:25.359Z,96399.47
2022-11-17T18:43:52.362Z,96398.84
2022-11-17T18:46:21.254Z,96391.63
2022-11-17T18:48:48.480Z,96401.97
2022-11-17T18:51:20.543Z,96401.84
2022-11-17T18:53:51.679Z,96389.13
2022-11-17T18:56:26.487Z,96394.91
2022-11-17T18:58:52.989Z,96398.84
2022-11-17T19:01:20.965Z,96399.78
2022-11-17T19:03:48.976Z,96394.91
2022-11-17T19:06:16.362Z,96397.28
2022-11-17T19:08:42.841Z,96391.47
2022-11-17T19:11:09.593Z,96397.13
2022-11-17T19:13:37.143Z,96392.88
2022-11-17T19:16:23.211Z,96392.88
2022-11-17T19:18:50.824Z,96389.13
2022-11-17T19:26:22.912Z,96399.31
2022-11-17T19:28:49.546Z,96398.84
2022-11-17T19:31:19.486Z,96393.34
2022-11-17T19:33:46.551Z,96396.34
2022-11-17T19:36:33.341Z,96402.63
2022-11-17T19:39:00.427Z,96405.25
2022-11-17T19:41:28.334Z,96403.84
2022-11-17T19:43:55.584Z,96408.69
2022-11-17T19:46:22.690Z,96409.50
2022-11-17T19:48:49.179Z,96404.28
2022-11-17T19:51:17.246Z,96407.44
2022-11-17T19:53:43.784Z,96412.28
2022-11-17T19:56:10.391Z,96414.94
2022-11-17T19:58:37.068Z,96417.00
2022-11-17T20:01:10.783Z,96411.50
2022-11-17T20:03:37.978Z,96418.38
2022-11-17T20:06:04.686Z,96421.97
2022-11-17T20:08:31.397Z,96423.38
2022-11-17T20:11:09.453Z,96419.28
2022-11-17T20:13:36.011Z,96434.34
2022-11-17T20:16:07.428Z,96429.13
2022-11-17T20:18:36.934Z,96426.78
2022-11-17T20:21:05.297Z,96434.47
2022-11-17T20:23:35.155Z,96432.72
2022-11-17T20:26:21.713Z,96440.75
2022-11-17T20:28:48.227Z,96440.25
2022-11-17T20:31:16.502Z,96444.19
2022-11-17T20:33:43.314Z,96446.25
2022-11-17T20:36:12.232Z,96444.97
2022-11-17T20:38:38.719Z,96453.13
2022-11-17T20:41:05.508Z,96447.81
2022-11-17T20:43:32.113Z,96457.38
2022-11-17T20:45:58.659Z,96455.50
2022-11-17T20:48:25.291Z,96464.75
2022-11-17T20:51:11.267Z,96472.78
2022-11-17T20:53:37.804Z,96467.72
2022-11-17T20:56:06.090Z,96475.75
2022-11-17T20:58:32.544Z,96477.63
2022-11-17T21:00:59.059Z,96470.44
2022-11-17T21:03:28.626Z,96478.75
2022-11-17T21:05:59.679Z,96484.56
2022-11-17T21:08:27.585Z,96483.13
2022-11-17T21:10:55.690Z,96487.09
2022-11-17T21:13:22.401Z,96494.78
2022-11-17T21:15:48.903Z,96489.13
2022-11-17T21:18:24.301Z,96490.53
2022-11-17T21:20:50.863Z,96497.31
2022-11-17T21:23:17.766Z,96499.50
2022-11-17T21:25:44.239Z,96496.84
2022-11-17T21:28:10.718Z,96503.28
2022-11-17T21:30:37.175Z,96500.78
2022-11-17T21:33:03.779Z,96505.50
2022-11-17T21:35:30.239Z,96504.69
2022-11-17T21:37:56.750Z,96511.63
2022-11-17T21:40:23.300Z,96505.50
2022-11-17T21:42:49.782Z,96506.59
2022-11-17T21:45:16.653Z,96515.38
2022-11-17T21:47:43.137Z,96512.25
2022-11-17T21:50:10.097Z,96516.03
2022-11-17T21:52:36.577Z,96516.50
2022-11-17T21:55:03.030Z,96518.22
2022-11-17T21:57:29.509Z,96517.44
2022-11-17T21:59:55.969Z,96529.22
2022-11-17T22:02:22.455Z,96530.34
2022-11-17T22:04:48.924Z,96531.75
2022-11-17T22:07:15.452Z,96528.00
2022-11-17T22:09:42.232Z,96535.53
2022-11-17T22:12:08.775Z,96535.06
2022-11-17T22:14:35.239Z,96539.16
2022-11-17T22:17:01.750Z,96543.72
2022-11-17T22:19:29.372Z,96541.03
2022-11-17T22:21:55.858Z,96546.84
2022-11-17T22:24:22.409Z,96544.31
2022-11-17T22:26:48.986Z,96543.09
2022-11-17T22:29:17.815Z,96540.44
2022-11-17T22:31:45.295Z,96537.59
2022-11-17T22:34:12.428Z,96542.78
2022-11-17T22:36:38.929Z,96550.50
2022-11-17T22:39:05.403Z,96549.53
2022-11-17T22:41:31.892Z,96549.03
2022-11-17T22:43:58.543Z,96554.22
2022-11-17T22:46:26.182Z,96554.84
2022-11-17T22:48:53.165Z,96557.06
2022-11-17T22:51:38.394Z,96557.34
2022-11-17T22:54:05.601Z,96556.56
2022-11-17T22:56:32.279Z,96563.63
2022-11-17T22:58:59.995Z,96559.72
2022-11-17T23:01:26.738Z,96562.69
2022-11-17T23:03:53.291Z,96562.69
2022-11-17T23:06:19.862Z,96567.56
2022-11-17T23:08:46.345Z,96559.88
2022-11-17T23:11:36.029Z,96559.09
2022-11-17T23:13:59.335Z,96562.38
2022-11-17T23:16:25.855Z,96568.03
2022-11-17T23:18:53.535Z,96571.00
2022-11-17T23:21:20.046Z,96571.31
2022-11-17T23:26:12.911Z,96574.91
2022-11-17T23:28:40.062Z,96568.81
2022-11-17T23:31:08.335Z,96570.97
2022-11-17T23:33:39.056Z,96568.63
2022-11-17T23:36:06.575Z,96571.91
2022-11-17T23:38:33.184Z,96573.16
2022-11-17T23:41:03.634Z,96571.28
2022-11-17T23:43:30.140Z,96579.28
2022-11-17T23:45:56.841Z,96577.25
2022-11-17T23:48:23.373Z,96572.84
2022-11-17T23:50:50.002Z,96576.59
2022-11-17T23:53:16.496Z,96580.34
2022-11-17T23:55:42.988Z,96578.00
2022-11-17T23:58:09.458Z,96579.13
